Time;durP1;ratioP1;P1;durP2;ratioP2;P2;SDS_P1;SDS_P2;PMS_P1;PMS_P2;Temp;Humidity;BMP_temperature;BMP_pressure;BME280_temperature;BME280_humidity;BME280_pressure;Samples;Min_cycle;Max_cycle;Signal;HPM_P1;HPM_P2
2022/05/21 00:00:55;;;;;;;3.08;1.70;;;;;;;;;;8313632;28;20064;-59
2022/05/21 00:04:56;;;;;;;2.90;1.80;;;;;;;;;;8310898;28;20454;-60
2022/05/21 00:08:56;;;;;;;3.30;1.93;;;;;;;;;;8311879;28;20036;-59
2022/05/21 00:12:57;;;;;;;4.05;2.10;;;;;;;;;;8312390;28;20022;-60
2022/05/21 00:16:57;;;;;;;2.03;1.92;;;;;;;;;;8311130;28;20144;-59
2022/05/21 00:20:58;;;;;;;2.58;1.95;;;;;;;;;;8312627;28;20689;-59
2022/05/21 00:24:58;;;;;;;2.20;2.00;;;;;;;;;;8314117;28;20021;-59
2022/05/21 00:28:58;;;;;;;2.75;2.10;;;;;;;;;;8311717;28;20832;-59
2022/05/21 00:32:59;;;;;;;3.67;1.87;;;;;;;;;;8311032;28;20113;-59
2022/05/21 00:36:59;;;;;;;2.72;1.90;;;;;;;;;;8310620;28;20711;-59
2022/05/21 00:41:00;;;;;;;5.03;2.00;;;;;;;;;;8311010;28;20017;-60
2022/05/21 00:45:00;;;;;;;2.88;2.22;;;;;;;;;;8311499;28;20079;-59
2022/05/21 00:49:03;;;;;;;2.50;2.30;;;;;;;;;;8311331;28;20069;-59
2022/05/21 00:53:04;;;;;;;4.40;2.40;;;;;;;;;;8310172;28;20021;-60
2022/05/21 00:57:08;;;;;;;3.58;2.42;;;;;;;;;;8310745;28;20275;-60
2022/05/21 01:01:10;;;;;;;2.70;2.20;;;;;;;;;;8308818;28;20029;-59
2022/05/21 01:05:12;;;;;;;3.45;2.08;;;;;;;;;;8307651;28;20441;-59
2022/05/21 01:09:12;;;;;;;3.25;2.10;;;;;;;;;;8307352;28;20024;-59
2022/05/21 01:13:15;;;;;;;3.05;2.30;;;;;;;;;;8308671;28;20140;-59
2022/05/21 01:17:17;;;;;;;3.17;2.00;;;;;;;;;;8308495;28;20662;-59
2022/05/21 01:21:18;;;;;;;2.53;1.88;;;;;;;;;;8309606;28;20449;-59
2022/05/21 01:25:21;;;;;;;2.53;2.17;;;;;;;;;;8309279;28;20052;-59
2022/05/21 01:29:22;;;;;;;3.80;2.22;;;;;;;;;;8308642;28;20030;-59
2022/05/21 01:33:27;;;;;;;2.47;2.25;;;;;;;;;;8309787;28;20115;-59
2022/05/21 01:37:29;;;;;;;2.17;1.95;;;;;;;;;;8308688;28;20777;-60
2022/05/21 01:41:29;;;;;;;2.20;2.10;;;;;;;;;;8307677;28;20021;-60
2022/05/21 01:45:29;;;;;;;3.10;2.25;;;;;;;;;;8309492;28;20483;-60
2022/05/21 01:49:29;;;;;;;3.20;2.25;;;;;;;;;;8309035;28;20025;-60
2022/05/21 01:53:29;;;;;;;1.92;1.77;;;;;;;;;;8309843;28;20028;-60
2022/05/21 01:57:30;;;;;;;3.28;1.75;;;;;;;;;;8307472;28;20545;-59
2022/05/21 02:01:30;;;;;;;2.25;2.00;;;;;;;;;;8309449;28;20612;-59
2022/05/21 02:05:30;;;;;;;2.10;1.90;;;;;;;;;;8309128;28;20025;-60
2022/05/21 02:09:31;;;;;;;3.00;2.08;;;;;;;;;;8309851;28;20033;-60
2022/05/21 02:13:31;;;;;;;2.92;2.03;;;;;;;;;;8305926;28;20036;-59
2022/05/21 02:17:32;;;;;;;2.50;2.20;;;;;;;;;;8307973;28;20070;-59
2022/05/21 02:21:34;;;;;;;1.90;1.80;;;;;;;;;;8309091;28;20048;-58
2022/05/21 02:25:34;;;;;;;1.83;1.73;;;;;;;;;;8308377;28;20029;-59
2022/05/21 02:29:34;;;;;;;3.70;2.00;;;;;;;;;;8309401;28;20029;-59
2022/05/21 02:33:34;;;;;;;3.40;1.75;;;;;;;;;;8307235;28;20029;-59
2022/05/21 02:41:56;;;;;;;3.15;1.70;;;;;;;;;;8307015;28;21037;-59
2022/05/21 02:45:56;;;;;;;2.40;1.80;;;;;;;;;;8306112;28;20068;-59
2022/05/21 02:49:56;;;;;;;3.35;1.80;;;;;;;;;;8308303;28;20705;-60
2022/05/21 02:53:56;;;;;;;2.20;1.60;;;;;;;;;;8304737;28;20025;-59
2022/05/21 02:57:57;;;;;;;4.95;1.80;;;;;;;;;;8307976;28;20035;-59
2022/05/21 03:01:57;;;;;;;2.83;1.67;;;;;;;;;;8307529;28;20036;-59
2022/05/21 03:05:57;;;;;;;2.08;1.70;;;;;;;;;;8304625;28;20028;-59
2022/05/21 03:14:17;;;;;;;1.63;1.40;;;;;;;;;;8305517;28;21054;-59
2022/05/21 03:18:17;;;;;;;1.50;1.40;;;;;;;;;;8303283;28;20714;-59
2022/05/21 03:22:17;;;;;;;1.35;1.20;;;;;;;;;;8303020;28;20759;-58
2022/05/21 03:26:17;;;;;;;2.83;1.40;;;;;;;;;;8307076;28;20107;-59
2022/05/21 03:30:19;;;;;;;2.33;1.30;;;;;;;;;;8303352;28;20025;-59
2022/05/21 03:34:20;;;;;;;3.60;1.30;;;;;;;;;;8309378;28;20025;-59
2022/05/21 03:38:20;;;;;;;1.10;1.10;;;;;;;;;;8304978;28;20873;-59
2022/05/21 03:42:20;;;;;;;1.50;1.20;;;;;;;;;;8306714;28;20505;-60
2022/05/21 03:46:21;;;;;;;1.47;1.33;;;;;;;;;;8309840;28;20086;-59
2022/05/21 03:50:22;;;;;;;1.55;1.10;;;;;;;;;;8309679;28;20041;-60
2022/05/21 03:54:23;;;;;;;4.15;1.10;;;;;;;;;;8313831;28;20025;-58
2022/05/21 03:58:23;;;;;;;2.25;1.10;;;;;;;;;;8310202;28;20478;-59
2022/05/21 04:02:24;;;;;;;1.33;0.90;;;;;;;;;;8312398;28;20037;-59
2022/05/21 04:06:24;;;;;;;1.00;1.00;;;;;;;;;;8315823;28;20037;-59
2022/05/21 04:10:24;;;;;;;1.10;1.00;;;;;;;;;;8312336;28;20668;-58
2022/05/21 04:14:29;;;;;;;0.90;0.90;;;;;;;;;;8312239;28;20036;-58
2022/05/21 04:18:29;;;;;;;1.10;1.00;;;;;;;;;;8312459;28;20063;-59
2022/05/21 04:22:29;;;;;;;1.30;0.80;;;;;;;;;;8313005;28;20059;-58
2022/05/21 04:26:30;;;;;;;1.17;0.80;;;;;;;;;;8312335;28;20037;-60
2022/05/21 04:30:30;;;;;;;2.13;1.00;;;;;;;;;;8309200;28;20104;-60
2022/05/21 04:34:30;;;;;;;3.00;1.10;;;;;;;;;;8311839;28;20021;-59
2022/05/21 04:38:34;;;;;;;1.25;0.90;;;;;;;;;;8311228;28;20093;-58
2022/05/21 04:42:34;;;;;;;2.77;1.00;;;;;;;;;;8310186;28;20838;-60
2022/05/21 04:46:35;;;;;;;1.52;0.90;;;;;;;;;;8308350;28;20287;-59
2022/05/21 04:50:36;;;;;;;1.85;0.90;;;;;;;;;;8310397;28;20029;-59
2022/05/21 04:54:37;;;;;;;2.03;0.88;;;;;;;;;;8310687;28;21131;-58
2022/05/21 04:58:38;;;;;;;1.85;0.98;;;;;;;;;;8312058;28;20044;-59
2022/05/21 05:02:38;;;;;;;0.73;0.70;;;;;;;;;;8311299;28;20083;-60
2022/05/21 05:06:39;;;;;;;2.30;0.90;;;;;;;;;;8311459;28;20033;-59
2022/05/21 05:10:39;;;;;;;1.60;0.70;;;;;;;;;;8310917;28;20108;-60
2022/05/21 05:14:39;;;;;;;2.75;1.10;;;;;;;;;;8311271;28;20017;-59
2022/05/21 05:18:40;;;;;;;1.30;1.00;;;;;;;;;;8310634;28;20096;-60
2022/05/21 05:22:40;;;;;;;3.90;1.00;;;;;;;;;;8310196;28;20039;-60
2022/05/21 05:26:40;;;;;;;2.30;0.90;;;;;;;;;;8308887;28;20106;-60
2022/05/21 05:30:41;;;;;;;1.52;1.00;;;;;;;;;;8308522;28;20042;-60
2022/05/21 05:34:41;;;;;;;1.85;0.85;;;;;;;;;;8309285;28;20083;-61
2022/05/21 05:38:41;;;;;;;2.03;0.95;;;;;;;;;;8310692;28;20849;-60
2022/05/21 05:42:41;;;;;;;2.83;1.20;;;;;;;;;;8308796;28;20096;-61
2022/05/21 05:46:41;;;;;;;3.22;1.00;;;;;;;;;;8311852;28;20041;-60
2022/05/21 05:50:42;;;;;;;3.40;1.17;;;;;;;;;;8309114;28;20029;-61
2022/05/21 05:54:42;;;;;;;5.10;1.40;;;;;;;;;;8309063;28;20031;-60
2022/05/21 06:03:01;;;;;;;3.20;0.90;;;;;;;;;;8308823;28;20144;-61
2022/05/21 06:07:01;;;;;;;3.13;1.00;;;;;;;;;;8309185;28;20045;-57
2022/05/21 06:11:02;;;;;;;5.07;1.25;;;;;;;;;;8311382;28;20536;-57
2022/05/21 06:15:03;;;;;;;4.82;1.20;;;;;;;;;;8307431;28;20029;-58
2022/05/21 06:19:03;;;;;;;2.70;1.20;;;;;;;;;;8309856;28;20110;-58
2022/05/21 06:23:03;;;;;;;3.55;1.00;;;;;;;;;;8308141;28;21052;-59
2022/05/21 06:27:04;;;;;;;2.63;1.03;;;;;;;;;;8306979;28;20128;-59
2022/05/21 06:31:05;;;;;;;4.18;1.20;;;;;;;;;;8309002;28;21188;-58
2022/05/21 06:35:05;;;;;;;3.78;1.38;;;;;;;;;;8308871;28;20536;-58
2022/05/21 06:39:05;;;;;;;4.50;1.20;;;;;;;;;;8307393;28;20025;-59
2022/05/21 06:43:06;;;;;;;2.47;1.10;;;;;;;;;;8308110;28;20097;-59
2022/05/21 06:47:06;;;;;;;2.97;1.50;;;;;;;;;;8307913;28;20038;-66
2022/05/21 06:51:06;;;;;;;4.10;1.35;;;;;;;;;;8307769;28;20022;-59
2022/05/21 06:55:08;;;;;;;2.70;1.20;;;;;;;;;;8307641;28;20439;-59
2022/05/21 06:59:08;;;;;;;2.45;1.20;;;;;;;;;;8306089;28;20831;-59
2022/05/21 07:03:08;;;;;;;2.80;1.10;;;;;;;;;;8306425;28;20068;-59
2022/05/21 07:11:28;;;;;;;3.05;1.15;;;;;;;;;;8308316;28;20032;-60
2022/05/21 07:15:28;;;;;;;4.00;1.37;;;;;;;;;;8305534;28;20033;-59
2022/05/21 07:19:28;;;;;;;2.97;1.08;;;;;;;;;;8312389;28;20039;-59
2022/05/21 07:23:29;;;;;;;2.22;1.20;;;;;;;;;;8314459;28;20035;-60
2022/05/21 07:27:29;;;;;;;4.07;1.20;;;;;;;;;;8313648;28;20139;-59
2022/05/21 07:31:29;;;;;;;6.03;1.70;;;;;;;;;;8312819;28;20589;-59
2022/05/21 07:35:30;;;;;;;5.75;1.38;;;;;;;;;;8313581;28;20624;-59
2022/05/21 07:39:30;;;;;;;3.33;1.20;;;;;;;;;;8313053;28;20029;-59
2022/05/21 07:43:30;;;;;;;3.83;1.48;;;;;;;;;;8311196;28;20068;-59
2022/05/21 07:47:31;;;;;;;1.67;1.10;;;;;;;;;;8312749;28;20033;-59
2022/05/21 07:51:32;;;;;;;5.93;1.42;;;;;;;;;;8312694;28;20456;-59
2022/05/21 07:55:32;;;;;;;3.72;1.20;;;;;;;;;;8308284;28;20017;-59
2022/05/21 07:59:33;;;;;;;3.95;1.17;;;;;;;;;;8311860;28;20017;-59
2022/05/21 08:03:33;;;;;;;4.40;1.33;;;;;;;;;;8308280;28;20115;-59
2022/05/21 08:07:33;;;;;;;3.38;1.08;;;;;;;;;;8306581;28;20105;-59
2022/05/21 08:11:34;;;;;;;5.07;1.20;;;;;;;;;;8308849;28;20711;-59
2022/05/21 08:15:34;;;;;;;3.15;1.00;;;;;;;;;;8307900;28;20033;-59
2022/05/21 08:19:35;;;;;;;3.58;1.35;;;;;;;;;;8306633;28;20048;-59
2022/05/21 08:27:55;;;;;;;6.18;1.38;;;;;;;;;;8307555;28;20708;-59
2022/05/21 08:31:56;;;;;;;1.92;1.10;;;;;;;;;;8310310;28;20033;-59
2022/05/21 08:35:56;;;;;;;4.07;1.20;;;;;;;;;;8312799;28;20521;-59
2022/05/21 08:39:56;;;;;;;2.40;1.10;;;;;;;;;;8313199;28;20953;-61
2022/05/21 08:44:01;;;;;;;4.80;1.50;;;;;;;;;;8307148;28;20037;-61
2022/05/21 08:48:03;;;;;;;1.70;0.98;;;;;;;;;;8307424;28;20144;-58
2022/05/21 08:52:14;;;;;;;5.28;1.23;;;;;;;;;;8304524;28;20031;-58
2022/05/21 08:56:14;;;;;;;4.78;1.30;;;;;;;;;;8305346;28;20028;-58
2022/05/21 09:00:18;;;;;;;2.40;1.20;;;;;;;;;;8307241;28;20029;-59
2022/05/21 09:04:23;;;;;;;4.65;1.20;;;;;;;;;;8308528;28;20029;-60
2022/05/21 09:08:31;;;;;;;2.75;1.17;;;;;;;;;;8304226;28;20029;-59
2022/05/21 09:12:45;;;;;;;2.80;1.13;;;;;;;;;;8306971;28;20021;-60
2022/05/21 09:16:54;;;;;;;3.53;1.23;;;;;;;;;;8306572;28;20637;-59
2022/05/21 09:21:00;;;;;;;3.28;1.30;;;;;;;;;;8302063;28;20037;-59
2022/05/21 09:25:01;;;;;;;3.35;1.08;;;;;;;;;;8305132;28;20029;-59
2022/05/21 09:29:20;;;;;;;2.40;1.10;;;;;;;;;;8304910;28;20577;-59
2022/05/21 09:33:32;;;;;;;4.35;1.48;;;;;;;;;;8307340;28;20060;-59
2022/05/21 09:37:32;;;;;;;1.35;1.00;;;;;;;;;;8308667;28;20071;-59
2022/05/21 09:41:33;;;;;;;3.40;1.20;;;;;;;;;;8306630;28;20033;-60
2022/05/21 09:45:34;;;;;;;1.50;1.00;;;;;;;;;;8307540;28;20510;-59
2022/05/21 09:49:34;;;;;;;1.13;0.85;;;;;;;;;;8310191;28;20028;-59
2022/05/21 09:53:39;;;;;;;3.47;1.10;;;;;;;;;;8305361;28;20592;-59
2022/05/21 09:57:42;;;;;;;1.58;0.95;;;;;;;;;;8305004;28;20395;-59
2022/05/21 10:01:44;;;;;;;3.53;1.02;;;;;;;;;;8305546;28;20041;-59
2022/05/21 10:05:47;;;;;;;3.50;1.15;;;;;;;;;;8308822;28;20507;-59
2022/05/21 10:14:14;;;;;;;3.25;1.02;;;;;;;;;;8304040;28;20044;-59
2022/05/21 10:18:33;;;;;;;3.25;1.25;;;;;;;;;;8307076;28;20883;-59
2022/05/21 10:22:34;;;;;;;1.70;0.98;;;;;;;;;;8308684;28;20127;-59
2022/05/21 10:26:34;;;;;;;4.78;1.10;;;;;;;;;;8307484;28;20025;-59
2022/05/21 10:30:37;;;;;;;2.58;1.10;;;;;;;;;;8306033;28;20049;-58
2022/05/21 10:34:45;;;;;;;1.88;1.00;;;;;;;;;;8305639;28;20402;-59
2022/05/21 10:38:51;;;;;;;2.97;1.10;;;;;;;;;;8306332;28;20376;-58
2022/05/21 10:42:54;;;;;;;2.65;1.10;;;;;;;;;;8305331;28;20041;-58
2022/05/21 10:46:54;;;;;;;;;;;;;;;;;;8305428;28;20647;-59
2022/05/21 10:51:02;;;;;;;1.95;0.93;;;;;;;;;;8303512;28;19920;-58
2022/05/21 10:55:08;;;;;;;3.10;1.10;;;;;;;;;;8305923;28;20022;-58
2022/05/21 10:59:15;;;;;;;2.45;1.10;;;;;;;;;;8306037;28;20025;-60
2022/05/21 11:03:29;;;;;;;5.13;1.50;;;;;;;;;;8307126;28;20033;-59
2022/05/21 11:07:35;;;;;;;2.50;1.00;;;;;;;;;;8304898;28;20029;-59
2022/05/21 11:11:42;;;;;;;1.63;1.00;;;;;;;;;;8305026;28;20040;-59
2022/05/21 11:15:50;;;;;;;3.42;1.15;;;;;;;;;;8298643;28;20467;-59
2022/05/21 11:19:53;;;;;;;2.63;1.00;;;;;;;;;;8300578;28;20139;-59
2022/05/21 11:24:08;;;;;;;2.75;1.15;;;;;;;;;;8299444;28;20073;-58
2022/05/21 11:28:14;;;;;;;4.80;1.55;;;;;;;;;;8298898;28;20385;-59
2022/05/21 11:45:25;;;;;;;3.35;1.13;;;;;;;;;;8299216;28;20597;-59
2022/05/21 11:49:28;;;;;;;2.55;1.10;;;;;;;;;;8300872;28;20021;-58
2022/05/21 11:53:37;;;;;;;2.78;1.00;;;;;;;;;;8297748;28;20538;-59
2022/05/21 11:57:39;;;;;;;2.55;1.17;;;;;;;;;;8299311;28;20029;-59
2022/05/21 12:01:39;;;;;;;2.55;1.00;;;;;;;;;;8298168;28;20049;-59
2022/05/21 12:05:46;;;;;;;2.70;0.80;;;;;;;;;;8304297;28;20037;-59
2022/05/21 12:09:58;;;;;;;1.73;0.90;;;;;;;;;;8305515;28;20044;-59
2022/05/21 12:14:04;;;;;;;1.52;0.70;;;;;;;;;;8303755;28;20358;-59
2022/05/21 12:18:09;;;;;;;2.00;0.98;;;;;;;;;;8304788;28;20065;-59
2022/05/21 12:22:09;;;;;;;1.77;0.90;;;;;;;;;;8304187;28;20033;-58
2022/05/21 12:26:13;;;;;;;1.85;0.90;;;;;;;;;;8303934;28;20401;-59
2022/05/21 12:30:23;;;;;;;3.05;0.95;;;;;;;;;;8303469;28;20587;-60
2022/05/21 12:34:26;;;;;;;2.40;1.10;;;;;;;;;;8302908;28;20387;-58
2022/05/21 12:38:31;;;;;;;1.02;0.70;;;;;;;;;;8304098;28;20397;-59
2022/05/21 12:42:43;;;;;;;1.80;0.90;;;;;;;;;;8302621;28;20167;-59
2022/05/21 12:46:48;;;;;;;2.77;1.10;;;;;;;;;;8303526;28;20038;-59
2022/05/21 12:50:52;;;;;;;2.88;0.85;;;;;;;;;;8302968;28;20516;-59
2022/05/21 12:55:12;;;;;;;1.63;0.90;;;;;;;;;;8304842;28;20464;-59
2022/05/21 12:59:15;;;;;;;2.63;0.85;;;;;;;;;;8302480;28;20067;-59
2022/05/21 13:03:15;;;;;;;2.60;0.90;;;;;;;;;;8302297;28;20142;-59
2022/05/21 13:07:21;;;;;;;3.17;0.97;;;;;;;;;;8302900;28;20021;-59
2022/05/21 13:11:22;;;;;;;2.10;0.90;;;;;;;;;;8302212;28;20268;-60
2022/05/21 13:15:25;;;;;;;1.00;0.80;;;;;;;;;;8303309;28;20072;-59
2022/05/21 13:19:28;;;;;;;1.30;0.80;;;;;;;;;;8302081;28;20394;-59
2022/05/21 13:23:37;;;;;;;2.08;0.88;;;;;;;;;;8304013;28;20126;-59
2022/05/21 13:27:45;;;;;;;1.70;0.80;;;;;;;;;;8301268;28;20051;-59
2022/05/21 13:31:47;;;;;;;1.50;0.77;;;;;;;;;;8300970;28;20079;-58
2022/05/21 13:35:47;;;;;;;1.98;0.90;;;;;;;;;;8303578;28;20104;-59
2022/05/21 13:40:00;;;;;;;2.92;1.00;;;;;;;;;;8302605;28;20057;-59
2022/05/21 13:44:01;;;;;;;1.77;0.80;;;;;;;;;;8301082;28;20087;-59
2022/05/21 13:48:14;;;;;;;2.63;0.80;;;;;;;;;;8300886;28;20037;-59
2022/05/21 13:52:14;;;;;;;2.08;0.95;;;;;;;;;;8306815;28;20022;-59
2022/05/21 13:56:30;;;;;;;4.57;1.00;;;;;;;;;;8307250;28;20437;-58
2022/05/21 14:00:31;;;;;;;2.15;0.70;;;;;;;;;;8304003;28;20375;-58
2022/05/21 14:04:36;;;;;;;3.80;1.00;;;;;;;;;;8306438;28;20071;-58
2022/05/21 14:08:36;;;;;;;1.38;0.90;;;;;;;;;;8306097;28;20039;-59
2022/05/21 14:12:58;;;;;;;2.65;0.75;;;;;;;;;;8307868;28;20033;-60
2022/05/21 14:17:10;;;;;;;2.15;0.88;;;;;;;;;;8304441;28;20032;-59
2022/05/21 14:21:16;;;;;;;0.93;0.80;;;;;;;;;;8307849;28;20043;-64
2022/05/21 14:25:22;;;;;;;1.92;0.82;;;;;;;;;;8306988;28;20033;-59
2022/05/21 14:29:34;;;;;;;1.25;0.98;;;;;;;;;;8304891;28;20021;-59
2022/05/21 14:33:50;;;;;;;0.98;0.75;;;;;;;;;;8303864;28;20930;-59
2022/05/21 14:37:54;;;;;;;1.70;1.00;;;;;;;;;;8307774;28;20909;-58
2022/05/21 14:41:59;;;;;;;1.58;0.90;;;;;;;;;;8303406;28;20057;-59
2022/05/21 14:46:00;;;;;;;2.15;0.73;;;;;;;;;;8305740;28;20532;-60
2022/05/21 14:54:19;;;;;;;1.88;0.80;;;;;;;;;;8307971;28;20971;-58
2022/05/21 14:58:20;;;;;;;1.38;0.80;;;;;;;;;;8302844;28;20371;-58
2022/05/21 15:02:20;;;;;;;1.50;0.82;;;;;;;;;;8306378;28;20037;-59
2022/05/21 15:06:22;;;;;;;2.27;0.90;;;;;;;;;;8305732;28;20074;-60
2022/05/21 15:10:22;;;;;;;2.03;1.13;;;;;;;;;;8306740;28;20029;-59
2022/05/21 15:14:22;;;;;;;1.55;0.70;;;;;;;;;;8306007;28;20025;-59
2022/05/21 15:18:22;;;;;;;1.00;0.70;;;;;;;;;;8305333;28;20060;-59
2022/05/21 15:22:25;;;;;;;4.15;1.00;;;;;;;;;;8304941;28;20292;-59
2022/05/21 15:26:25;;;;;;;3.55;0.90;;;;;;;;;;8306823;28;20032;-58
2022/05/21 15:30:28;;;;;;;2.00;0.93;;;;;;;;;;8304002;28;20048;-59
2022/05/21 15:34:28;;;;;;;5.03;0.93;;;;;;;;;;8306088;28;20136;-59
2022/05/21 15:38:29;;;;;;;2.20;0.80;;;;;;;;;;8307308;28;20030;-59
2022/05/21 15:42:29;;;;;;;1.40;0.80;;;;;;;;;;8310327;28;20031;-59
2022/05/21 15:46:29;;;;;;;1.67;0.80;;;;;;;;;;8314149;28;20497;-59
2022/05/21 15:50:30;;;;;;;0.87;0.80;;;;;;;;;;8312139;28;20295;-59
2022/05/21 15:54:33;;;;;;;2.35;0.85;;;;;;;;;;8311378;28;20030;-59
2022/05/21 15:58:33;;;;;;;;;;;;;;;;;;8311094;28;20025;-59
2022/05/21 16:02:36;;;;;;;1.75;0.75;;;;;;;;;;8311338;28;20557;-59
2022/05/21 16:06:36;;;;;;;1.55;0.98;;;;;;;;;;8312580;28;20403;-59
2022/05/21 16:10:39;;;;;;;1.70;0.85;;;;;;;;;;8312489;28;20064;-59
2022/05/21 16:14:39;;;;;;;2.20;0.90;;;;;;;;;;8309663;28;20308;-59
2022/05/21 16:18:43;;;;;;;1.00;0.80;;;;;;;;;;8309969;28;20091;-59
2022/05/21 16:22:43;;;;;;;1.52;0.90;;;;;;;;;;8310529;28;20025;-58
2022/05/21 16:31:04;;;;;;;1.55;1.00;;;;;;;;;;8309480;28;20103;-59
2022/05/21 16:35:05;;;;;;;1.45;0.80;;;;;;;;;;8307765;28;20479;-59
2022/05/21 16:39:06;;;;;;;2.05;0.80;;;;;;;;;;8309813;28;20075;-59
2022/05/21 16:43:07;;;;;;;2.72;0.80;;;;;;;;;;8309813;28;20738;-58
2022/05/21 16:47:08;;;;;;;1.00;0.80;;;;;;;;;;8311027;28;20856;-59
2022/05/21 16:51:08;;;;;;;2.92;0.80;;;;;;;;;;8308696;28;20116;-59
2022/05/21 16:55:09;;;;;;;1.30;0.90;;;;;;;;;;8307516;28;20549;-58
2022/05/21 16:59:09;;;;;;;1.00;0.80;;;;;;;;;;8309803;28;20518;-58
2022/05/21 17:03:09;;;;;;;2.65;1.25;;;;;;;;;;8311837;28;20033;-59
2022/05/21 17:07:10;;;;;;;2.20;1.02;;;;;;;;;;8309437;28;20040;-58
2022/05/21 17:11:11;;;;;;;1.80;0.95;;;;;;;;;;8308203;28;20470;-59
2022/05/21 17:15:11;;;;;;;1.05;0.90;;;;;;;;;;8307556;28;20025;-59
2022/05/21 17:19:11;;;;;;;1.00;0.90;;;;;;;;;;8310625;28;20029;-59
2022/05/21 17:23:11;;;;;;;1.00;0.88;;;;;;;;;;8307348;28;20027;-59
2022/05/21 17:31:32;;;;;;;1.85;1.10;;;;;;;;;;8304221;28;20426;-59
2022/05/21 17:35:33;;;;;;;2.65;0.90;;;;;;;;;;8305802;28;20588;-59
2022/05/21 17:39:34;;;;;;;1.95;0.90;;;;;;;;;;8308477;28;20017;-59
2022/05/21 17:43:35;;;;;;;4.85;1.20;;;;;;;;;;8306273;28;20587;-59
2022/05/21 17:47:38;;;;;;;1.52;1.00;;;;;;;;;;8308472;28;20033;-59
2022/05/21 17:51:38;;;;;;;;;;;;;;;;;;8304613;28;20013;-59
2022/05/21 17:55:39;;;;;;;1.90;0.85;;;;;;;;;;8304804;28;19909;-59
2022/05/21 17:59:39;;;;;;;1.92;1.05;;;;;;;;;;8307272;28;20041;-60
2022/05/21 18:03:39;;;;;;;2.90;1.23;;;;;;;;;;8303492;28;20408;-59
2022/05/21 18:07:39;;;;;;;1.50;0.90;;;;;;;;;;8306806;28;20532;-59
2022/05/21 18:11:40;;;;;;;1.40;0.82;;;;;;;;;;8306239;28;20267;-60
2022/05/21 18:19:59;;;;;;;1.83;1.00;;;;;;;;;;8306549;28;20090;-60
2022/05/21 18:23:59;;;;;;;2.25;0.82;;;;;;;;;;8303987;28;20056;-60
2022/05/21 18:27:59;;;;;;;0.95;0.80;;;;;;;;;;8302869;28;20151;-59
2022/05/21 18:31:59;;;;;;;1.15;0.82;;;;;;;;;;8306576;28;20026;-59
2022/05/21 18:36:00;;;;;;;1.30;0.85;;;;;;;;;;8308187;28;20398;-59
2022/05/21 18:40:00;;;;;;;1.88;0.93;;;;;;;;;;8304447;28;20052;-60
2022/05/21 18:44:01;;;;;;;1.88;1.08;;;;;;;;;;8307198;28;20139;-59
2022/05/21 18:48:02;;;;;;;1.70;0.90;;;;;;;;;;8305575;28;20557;-59
2022/05/21 18:52:02;;;;;;;1.57;0.90;;;;;;;;;;8306113;28;20863;-59
2022/05/21 18:56:05;;;;;;;1.50;0.90;;;;;;;;;;8306961;28;20699;-59
2022/05/21 19:00:06;;;;;;;0.82;0.82;;;;;;;;;;8303686;28;20365;-59
2022/05/21 19:04:08;;;;;;;1.00;0.90;;;;;;;;;;8303022;28;20025;-59
2022/05/21 19:08:09;;;;;;;2.20;0.93;;;;;;;;;;8308206;28;20397;-59
2022/05/21 19:12:10;;;;;;;1.05;0.90;;;;;;;;;;8305629;28;20024;-60
2022/05/21 19:16:16;;;;;;;1.70;0.90;;;;;;;;;;8313426;28;20040;-59
2022/05/21 19:20:16;;;;;;;1.85;1.00;;;;;;;;;;8311852;28;20033;-60
2022/05/21 19:24:18;;;;;;;1.70;0.90;;;;;;;;;;8311398;28;20025;-59
2022/05/21 19:28:19;;;;;;;3.03;0.95;;;;;;;;;;8314277;28;20284;-59
2022/05/21 19:32:20;;;;;;;0.90;0.80;;;;;;;;;;8311456;28;20078;-60
2022/05/21 19:36:20;;;;;;;2.92;1.20;;;;;;;;;;8312299;28;20013;-58
2022/05/21 19:44:39;;;;;;;2.28;0.95;;;;;;;;;;8313098;28;20039;-58
2022/05/21 19:48:40;;;;;;;1.67;1.00;;;;;;;;;;8309957;28;20041;-59
2022/05/21 19:52:40;;;;;;;1.73;1.10;;;;;;;;;;8312649;28;20290;-59
2022/05/21 19:56:43;;;;;;;1.00;0.90;;;;;;;;;;8313217;28;20413;-59
2022/05/21 20:00:43;;;;;;;2.10;1.02;;;;;;;;;;8309983;28;20041;-59
2022/05/21 20:04:43;;;;;;;1.67;0.90;;;;;;;;;;8309466;28;20469;-59
2022/05/21 20:08:44;;;;;;;1.48;0.93;;;;;;;;;;8309724;28;20666;-59
2022/05/21 20:12:44;;;;;;;3.60;1.30;;;;;;;;;;8308249;28;20590;-58
2022/05/21 20:16:44;;;;;;;2.13;1.10;;;;;;;;;;8309436;28;20284;-59
2022/05/21 20:20:45;;;;;;;1.45;1.02;;;;;;;;;;8308180;28;20503;-59
2022/05/21 20:24:45;;;;;;;2.28;1.00;;;;;;;;;;8309369;28;20025;-58
2022/05/21 20:28:45;;;;;;;3.13;1.00;;;;;;;;;;8308286;28;20040;-59
2022/05/21 20:32:45;;;;;;;2.47;1.10;;;;;;;;;;8308669;28;20128;-59
2022/05/21 20:36:47;;;;;;;3.85;1.20;;;;;;;;;;8307605;28;20477;-59
2022/05/21 20:40:51;;;;;;;2.47;1.05;;;;;;;;;;8308665;28;20139;-59
2022/05/21 20:44:51;;;;;;;2.30;1.00;;;;;;;;;;8309234;28;20033;-58
2022/05/21 20:53:10;;;;;;;1.77;1.10;;;;;;;;;;8306917;28;20648;-59
2022/05/21 20:57:13;;;;;;;1.60;0.90;;;;;;;;;;8308459;28;20044;-59
2022/05/21 21:01:14;;;;;;;2.38;1.17;;;;;;;;;;8304691;28;20444;-59
2022/05/21 21:05:14;;;;;;;3.40;1.10;;;;;;;;;;8306932;28;20051;-59
2022/05/21 21:09:14;;;;;;;2.63;1.20;;;;;;;;;;8306899;28;20277;-59
2022/05/21 21:13:15;;;;;;;3.55;1.00;;;;;;;;;;8307315;28;20025;-58
2022/05/21 21:17:15;;;;;;;2.85;0.98;;;;;;;;;;8299937;28;20083;-58
2022/05/21 21:21:16;;;;;;;1.40;0.80;;;;;;;;;;8307658;28;20385;-59
2022/05/21 21:25:17;;;;;;;2.03;1.10;;;;;;;;;;8307128;28;20351;-58
2022/05/21 21:29:17;;;;;;;1.45;0.80;;;;;;;;;;8306625;28;20028;-59
2022/05/21 21:33:18;;;;;;;1.10;0.80;;;;;;;;;;8297273;28;20629;-58
2022/05/21 21:37:18;;;;;;;2.45;1.00;;;;;;;;;;8301655;28;20113;-58
2022/05/21 21:41:18;;;;;;;3.03;0.90;;;;;;;;;;8306638;28;20413;-60
2022/05/21 21:45:19;;;;;;;2.17;1.00;;;;;;;;;;8308293;28;20020;-59
2022/05/21 21:49:19;;;;;;;1.87;0.93;;;;;;;;;;8308817;28;20079;-58
2022/05/21 21:53:19;;;;;;;2.60;0.90;;;;;;;;;;8305457;28;20025;-59
2022/05/21 21:57:19;;;;;;;1.33;1.00;;;;;;;;;;8305147;28;20091;-58
2022/05/21 22:01:28;;;;;;;0.80;0.80;;;;;;;;;;8306442;28;20056;-59
2022/05/21 22:05:28;;;;;;;2.08;0.90;;;;;;;;;;8305819;28;20021;-59
2022/05/21 22:09:30;;;;;;;1.30;0.93;;;;;;;;;;8306981;28;20191;-58
2022/05/21 22:13:31;;;;;;;1.20;0.90;;;;;;;;;;8300585;28;20299;-58
2022/05/21 22:17:31;;;;;;;1.63;1.10;;;;;;;;;;8306226;28;20087;-58
2022/05/21 22:21:32;;;;;;;1.02;0.93;;;;;;;;;;8305255;28;20033;-57
2022/05/21 22:25:32;;;;;;;1.85;0.95;;;;;;;;;;8307499;28;20025;-58
2022/05/21 22:29:33;;;;;;;1.20;0.80;;;;;;;;;;8306290;28;20052;-59
2022/05/21 22:33:33;;;;;;;2.83;1.00;;;;;;;;;;8302531;28;20033;-59
2022/05/21 22:37:33;;;;;;;2.47;1.00;;;;;;;;;;8306178;28;20017;-57
2022/05/21 22:41:34;;;;;;;2.43;1.07;;;;;;;;;;8306745;28;20036;-58
2022/05/21 22:45:34;;;;;;;1.30;1.00;;;;;;;;;;8306223;28;20033;-58
2022/05/21 22:49:34;;;;;;;2.08;1.20;;;;;;;;;;8308466;28;20472;-58
2022/05/21 22:53:35;;;;;;;1.42;1.10;;;;;;;;;;8306028;28;20108;-59
2022/05/21 22:57:35;;;;;;;1.70;1.00;;;;;;;;;;8305662;28;20017;-58
2022/05/21 23:01:35;;;;;;;2.22;1.10;;;;;;;;;;8306738;28;20032;-58
2022/05/21 23:05:35;;;;;;;2.92;1.10;;;;;;;;;;8306990;28;20034;-58
2022/05/21 23:09:36;;;;;;;2.90;1.13;;;;;;;;;;8305789;28;20913;-58
2022/05/21 23:22:25;;;;;;;1.52;0.80;;;;;;;;;;8307108;28;20149;-58
2022/05/21 23:26:26;;;;;;;1.48;1.00;;;;;;;;;;8303915;28;20096;-59
2022/05/21 23:30:26;;;;;;;1.30;1.00;;;;;;;;;;8305438;28;20068;-58
2022/05/21 23:34:26;;;;;;;1.10;0.80;;;;;;;;;;8306319;28;20797;-58
2022/05/21 23:38:26;;;;;;;1.63;0.90;;;;;;;;;;8305429;28;20025;-58
2022/05/21 23:42:27;;;;;;;1.92;0.90;;;;;;;;;;8304796;28;20023;-58
2022/05/21 23:46:27;;;;;;;1.85;1.00;;;;;;;;;;8304963;28;20418;-58
2022/05/21 23:50:27;;;;;;;1.42;0.95;;;;;;;;;;8306385;28;20464;-57
2022/05/21 23:54:29;;;;;;;2.90;1.00;;;;;;;;;;8304236;28;20025;-57
2022/05/21 23:58:29;;;;;;;2.75;1.20;;;;;;;;;;8305222;28;20021;-57
